createdAt,value
2018-05-02T00:02:54.848Z,100894
2018-05-02T00:07:46.374Z,100891
2018-05-02T00:12:37.881Z,100892
2018-05-02T00:17:29.356Z,100896
2018-05-02T00:22:21.591Z,100894
2018-05-02T00:27:13.075Z,100890
2018-05-02T00:32:04.561Z,100894
2018-05-02T00:36:56.034Z,100896
2018-05-02T00:41:47.551Z,100897
2018-05-02T00:46:39.791Z,100893
2018-05-02T00:51:32.025Z,100893
2018-05-02T00:56:23.525Z,100894
2018-05-02T01:01:15.034Z,100900
2018-05-02T01:06:06.517Z,100890
2018-05-02T01:10:58.009Z,100892
2018-05-02T01:15:49.550Z,100896
2018-05-02T01:20:41.031Z,100883
2018-05-02T01:25:32.524Z,100880
2018-05-02T01:30:24.089Z,100880
2018-05-02T01:35:15.614Z,100876
2018-05-02T01:40:07.834Z,100876
2018-05-02T01:44:59.328Z,100870
2018-05-02T01:49:50.822Z,100874
2018-05-02T01:54:42.309Z,100870
2018-05-02T01:59:34.570Z,100872
2018-05-02T02:04:26.056Z,100864
2018-05-02T02:09:17.569Z,100859
2018-05-02T02:14:09.077Z,100860
2018-05-02T02:19:00.575Z,100859
2018-05-02T02:23:53.553Z,100843
2018-05-02T02:28:45.813Z,100842
2018-05-02T02:33:38.144Z,100845
2018-05-02T02:38:31.307Z,100845
2018-05-02T02:43:22.799Z,100842
2018-05-02T02:48:14.270Z,100846
2018-05-02T02:53:05.748Z,100853
2018-05-02T02:57:57.295Z,100855
2018-05-02T03:02:48.796Z,100857
2018-05-02T03:07:40.999Z,100860
2018-05-02T03:12:32.479Z,100864
2018-05-02T03:17:24.694Z,100866
2018-05-02T03:22:16.157Z,100859
2018-05-02T03:27:08.497Z,100856
2018-05-02T03:31:59.913Z,100857
2018-05-02T03:36:51.413Z,100861
2018-05-02T03:41:42.883Z,100860
2018-05-02T03:46:34.401Z,100854
2018-05-02T03:51:25.899Z,100860
2018-05-02T03:56:17.370Z,100865
2018-05-02T04:01:27.244Z,100867
2018-05-02T04:12:06.068Z,100873
2018-05-02T04:16:57.599Z,100871
2018-05-02T04:21:49.104Z,100871
2018-05-02T04:26:41.353Z,100870
2018-05-02T04:31:32.805Z,100873
2018-05-02T04:36:25.082Z,100871
2018-05-02T04:41:16.553Z,100878
2018-05-02T04:46:08.036Z,100885
2018-05-02T04:50:59.519Z,100891
2018-05-02T04:55:50.982Z,100894
2018-05-02T05:00:43.202Z,100897
2018-05-02T05:05:34.684Z,100903
2018-05-02T05:10:26.220Z,100910
2018-05-02T05:15:17.704Z,100913
2018-05-02T05:20:09.218Z,100922
2018-05-02T05:25:00.706Z,100915
2018-05-02T05:29:52.960Z,100914
2018-05-02T05:34:45.221Z,100903
2018-05-02T05:39:36.691Z,100905
2018-05-02T05:44:28.190Z,100893
2018-05-02T05:49:19.678Z,100894
2018-05-02T05:54:11.194Z,100887
2018-05-02T05:59:02.739Z,100887
2018-05-02T06:03:54.252Z,100885
2018-05-02T06:08:45.762Z,100879
2018-05-02T06:13:37.249Z,100878
2018-05-02T06:18:28.769Z,100872
2018-05-02T06:23:20.287Z,100860
2018-05-02T06:28:11.805Z,100865
2018-05-02T06:33:03.297Z,100866
2018-05-02T06:37:55.655Z,100859
2018-05-02T06:42:47.913Z,100870
2018-05-02T06:47:40.209Z,100868
2018-05-02T06:52:31.693Z,100851
2018-05-02T06:57:23.938Z,100855
2018-05-02T07:02:16.175Z,100865
2018-05-02T07:07:07.726Z,100860
2018-05-02T07:11:59.211Z,100857
2018-05-02T07:16:50.697Z,100865
2018-05-02T07:21:42.219Z,100867
2018-05-02T07:26:34.483Z,100851
2018-05-02T07:31:26.702Z,100842
2018-05-02T07:36:18.197Z,100865
2018-05-02T07:41:09.736Z,100840
2018-05-02T07:46:01.264Z,100840
2018-05-02T07:50:52.754Z,100846
2018-05-02T07:55:45.011Z,100825
2018-05-02T08:00:38.350Z,100844
2018-05-02T08:05:29.908Z,100852
2018-05-02T08:10:21.434Z,100850
2018-05-02T08:15:12.923Z,100836
2018-05-02T08:20:04.422Z,100818
2018-05-02T08:24:56.650Z,100815
2018-05-02T08:29:48.148Z,100787
2018-05-02T08:34:40.517Z,100793
2018-05-02T08:39:32.066Z,100788
2018-05-02T08:44:23.595Z,100775
2018-05-02T08:49:15.100Z,100756
2018-05-02T08:54:06.693Z,100760
2018-05-02T08:58:58.929Z,100754
2018-05-02T09:03:50.436Z,100748
2018-05-02T09:08:41.986Z,100730
2018-05-02T09:13:33.481Z,100735
2018-05-02T09:18:25.296Z,100746
2018-05-02T09:23:17.575Z,100736
2018-05-02T09:28:09.097Z,100728
2018-05-02T09:33:00.602Z,100730
2018-05-02T09:37:52.084Z,100726
2018-05-02T09:42:43.597Z,100713
2018-05-02T09:47:35.110Z,100706
2018-05-02T09:52:27.358Z,100696
2018-05-02T09:57:19.641Z,100694
2018-05-02T10:02:11.887Z,100691
2018-05-02T10:07:04.148Z,100705
2018-05-02T10:11:55.681Z,100700
2018-05-02T10:16:47.159Z,100683
2018-05-02T10:21:38.655Z,100684
2018-05-02T10:26:30.212Z,100682
2018-05-02T10:31:21.702Z,100682
2018-05-02T10:36:13.243Z,100675
2018-05-02T10:41:04.731Z,100666
2018-05-02T10:45:56.228Z,100665
2018-05-02T10:50:47.739Z,100659
2018-05-02T10:55:41.055Z,100650
2018-05-02T11:00:32.597Z,100649
2018-05-02T11:05:24.146Z,100639
2018-05-02T11:10:15.619Z,100630
2018-05-02T11:15:07.122Z,100641
2018-05-02T11:20:02.116Z,100639
2018-05-02T11:24:53.654Z,100636
2018-05-02T11:29:45.421Z,100638
2018-05-02T11:34:43.871Z,100615
2018-05-02T11:39:36.637Z,100619
2018-05-02T11:44:30.695Z,100619
2018-05-02T11:49:23.397Z,100612
2018-05-02T11:54:17.955Z,100607
2018-05-02T11:59:13.640Z,100596
2018-05-02T12:04:07.585Z,100596
2018-05-02T12:08:59.182Z,100597
2018-05-02T12:13:50.658Z,100590
2018-05-02T12:18:42.152Z,100588
2018-05-02T12:23:34.385Z,100577
2018-05-02T12:28:26.052Z,100579
2018-05-02T12:33:18.280Z,100585
2018-05-02T12:38:09.785Z,100574
2018-05-02T12:43:01.289Z,100575
2018-05-02T12:47:52.784Z,100558
2018-05-02T12:52:44.295Z,100547
2018-05-02T12:57:35.863Z,100545
2018-05-02T13:02:28.118Z,100544
2018-05-02T13:07:20.352Z,100526
2018-05-02T13:12:11.849Z,100519
2018-05-02T13:17:03.336Z,100508
2018-05-02T13:21:55.577Z,100517
2018-05-02T13:26:47.076Z,100511
2018-05-02T13:31:38.576Z,100504
2018-05-02T13:36:30.355Z,100498
2018-05-02T13:41:21.898Z,100495
2018-05-02T13:46:13.489Z,100490
2018-05-02T13:51:04.995Z,100487
2018-05-02T13:55:57.224Z,100481
2018-05-02T14:00:48.709Z,100467
2018-05-02T14:05:40.216Z,100460
2018-05-02T14:10:32.458Z,100453
2018-05-02T14:15:24.720Z,100453
2018-05-02T14:20:16.952Z,100441
2018-05-02T14:25:09.191Z,100437
2018-05-02T14:30:00.682Z,100440
2018-05-02T14:34:52.211Z,100430
2018-05-02T14:39:43.691Z,100441
2018-05-02T14:44:35.193Z,100442
2018-05-02T14:49:26.710Z,100426
2018-05-02T14:54:18.225Z,100435
2018-05-02T14:59:11.044Z,100432
2018-05-02T15:04:02.547Z,100430
2018-05-02T15:08:54.044Z,100434
2018-05-02T15:13:46.251Z,100434
2018-05-02T15:18:37.780Z,100424
2018-05-02T15:23:29.281Z,100419
2018-05-02T15:28:20.789Z,100418
2018-05-02T15:33:12.307Z,100422
2018-05-02T15:38:03.795Z,100416
2018-05-02T15:42:55.262Z,100409
2018-05-02T15:47:46.828Z,100417
2018-05-02T15:52:39.088Z,100407
2018-05-02T15:57:31.331Z,100411
2018-05-02T16:02:23.573Z,100408
2018-05-02T16:07:15.077Z,100415
2018-05-02T16:12:06.616Z,100403
2018-05-02T16:16:58.129Z,100398
2018-05-02T16:21:49.619Z,100404
2018-05-02T16:26:41.831Z,100405
2018-05-02T16:31:33.365Z,100414
2018-05-02T16:36:24.840Z,100414
2018-05-02T16:41:17.112Z,100412
2018-05-02T16:46:08.600Z,100407
2018-05-02T16:51:00.088Z,100412
2018-05-02T16:55:51.611Z,100413
2018-05-02T17:00:43.118Z,100424
2018-05-02T17:05:35.377Z,100428
2018-05-02T17:10:27.583Z,100426
2018-05-02T17:15:19.102Z,100430
2018-05-02T17:20:10.564Z,100440
2018-05-02T17:25:02.082Z,100439
2018-05-02T17:29:53.581Z,100438
2018-05-02T17:34:45.120Z,100437
2018-05-02T17:39:36.677Z,100442
2018-05-02T17:44:28.194Z,100439
2018-05-02T17:49:19.680Z,100449
2018-05-02T17:54:11.274Z,100454
2018-05-02T17:59:02.793Z,100464
2018-05-02T18:03:54.361Z,100461
2018-05-02T18:08:45.847Z,100467
2018-05-02T18:13:37.356Z,100461
2018-05-02T18:18:29.626Z,100466
2018-05-02T18:23:21.179Z,100474
2018-05-02T18:28:12.643Z,100477
2018-05-02T18:33:04.159Z,100485
2018-05-02T18:37:55.643Z,100489
2018-05-02T18:42:47.168Z,100490
2018-05-02T18:47:38.652Z,100500
2018-05-02T18:52:30.158Z,100502
2018-05-02T18:57:22.393Z,100504
2018-05-02T19:02:14.645Z,100507
2018-05-02T19:07:06.892Z,100516
2018-05-02T19:11:58.389Z,100514
2018-05-02T19:16:49.913Z,100523
2018-05-02T19:21:41.413Z,100529
2018-05-02T19:26:35.916Z,100532
2018-05-02T19:31:34.451Z,100539
2018-05-02T19:36:25.983Z,100547
2018-05-02T19:41:23.625Z,100550
2018-05-02T19:46:15.103Z,100560
2018-05-02T19:51:12.816Z,100568
2018-05-02T19:56:05.043Z,100565
2018-05-02T20:01:02.798Z,100562
2018-05-02T20:05:54.262Z,100564
2018-05-02T20:10:51.887Z,100569
2018-05-02T20:15:43.429Z,100573
2018-05-02T20:20:34.921Z,100580
2018-05-02T20:25:26.478Z,100589
2018-05-02T20:30:17.995Z,100590
2018-05-02T20:35:10.261Z,100581
2018-05-02T20:40:01.764Z,100587
2018-05-02T20:44:53.286Z,100592
2018-05-02T20:49:44.772Z,100601
2018-05-02T20:54:36.265Z,100593
2018-05-02T20:59:29.003Z,100592
2018-05-02T21:04:20.501Z,100600
2018-05-02T21:09:12.007Z,100604
2018-05-02T21:14:04.277Z,100604
2018-05-02T21:18:56.509Z,100607
2018-05-02T21:23:48.740Z,100606
2018-05-02T21:28:41.019Z,100614
2018-05-02T21:33:33.241Z,100617
2018-05-02T21:38:24.713Z,100622
2018-05-02T21:43:16.927Z,100621
2018-05-02T21:48:08.536Z,100632
2018-05-02T21:53:00.037Z,100630
2018-05-02T21:57:51.535Z,100633
2018-05-02T22:02:43.043Z,100641
2018-05-02T22:07:34.555Z,100638
2018-05-02T22:12:26.060Z,100642
2018-05-02T22:17:18.289Z,100647
2018-05-02T22:22:09.795Z,100658
2018-05-02T22:27:01.299Z,100659
2018-05-02T22:31:52.797Z,100662
2018-05-02T22:36:45.025Z,100659
2018-05-02T22:41:36.523Z,100670
2018-05-02T22:46:28.029Z,100667
2018-05-02T22:51:20.289Z,100662
2018-05-02T22:56:11.751Z,100661
2018-05-02T23:01:03.290Z,100661
2018-05-02T23:05:54.769Z,100667
2018-05-02T23:10:47.004Z,100669
2018-05-02T23:15:39.243Z,100685
2018-05-02T23:20:30.737Z,100685
2018-05-02T23:25:22.231Z,100695
2018-05-02T23:30:14.518Z,100689
2018-05-02T23:35:06.004Z,100693
2018-05-02T23:39:57.501Z,100694
2018-05-02T23:44:48.983Z,100689
2018-05-02T23:49:40.479Z,100694
2018-05-02T23:54:31.980Z,100689
2018-05-02T23:59:23.469Z,100683
